Time;durP1;ratioP1;P1;durP2;ratioP2;P2;SDS_P1;SDS_P2;PMS_P1;PMS_P2;Temp;Humidity;BMP_temperature;BMP_pressure;BME280_temperature;BME280_humidity;BME280_pressure;Samples;Min_cycle;Max_cycle;Signal;HPM_P1;HPM_P2
2023/09/14 00:01:03;;;;;;;5.30;0.70;;;13.90;99.90;;;;;;5051136;28;20055;-74
2023/09/14 00:03:51;;;;;;;1.77;0.60;;;13.90;99.90;;;;;;5049750;28;20084;-82
2023/09/14 00:06:37;;;;;;;3.40;0.63;;;14.00;99.90;;;;;;5050077;28;20068;-75
2023/09/14 00:09:23;;;;;;;3.75;0.82;;;14.00;99.90;;;;;;5032502;28;20493;-80
2023/09/14 00:12:09;;;;;;;4.32;0.80;;;14.00;99.90;;;;;;5037255;28;20079;-78
2023/09/14 00:14:55;;;;;;;8.38;0.82;;;14.00;99.90;;;;;;5054618;28;20087;-81
2023/09/14 00:17:42;;;;;;;4.32;0.77;;;14.00;99.90;;;;;;5053847;28;20463;-77
2023/09/14 00:20:32;;;;;;;22.67;1.55;;;14.10;99.90;;;;;;5053528;28;20591;-82
2023/09/14 00:23:20;;;;;;;3.05;0.65;;;14.10;99.90;;;;;;5055127;28;20056;-78
2023/09/14 00:26:06;;;;;;;2.88;0.70;;;14.10;99.90;;;;;;5054922;28;20071;-77
2023/09/14 00:28:52;;;;;;;6.72;0.75;;;14.10;99.90;;;;;;5054075;28;20057;-81
2023/09/14 00:31:38;;;;;;;3.45;0.60;;;14.10;99.90;;;;;;5013006;28;20049;-82
2023/09/14 00:34:24;;;;;;;5.32;0.82;;;14.10;99.90;;;;;;5012608;28;20153;-77
2023/09/14 00:37:10;;;;;;;4.00;0.75;;;14.10;99.90;;;;;;5013642;28;20092;-82
2023/09/14 00:39:56;;;;;;;3.58;0.90;;;14.20;99.90;;;;;;5014855;28;20072;-83
2023/09/14 00:42:43;;;;;;;3.67;0.73;;;14.20;99.90;;;;;;5012850;28;20508;-82
2023/09/14 00:45:29;;;;;;;2.88;0.63;;;14.20;99.90;;;;;;5013946;28;20053;-83
2023/09/14 00:48:16;;;;;;;5.18;1.05;;;14.30;99.90;;;;;;5013842;28;20049;-83
2023/09/14 00:51:03;;;;;;;4.53;0.88;;;14.20;99.90;;;;;;5014086;28;20108;-84
2023/09/14 00:53:50;;;;;;;3.05;0.60;;;14.30;99.90;;;;;;5014078;28;20195;-81
2023/09/14 00:56:37;;;;;;;4.55;0.90;;;14.30;99.90;;;;;;5013810;28;20081;-81
2023/09/14 00:59:23;;;;;;;3.65;0.70;;;14.30;99.90;;;;;;5015550;28;20167;-82
2023/09/14 01:02:10;;;;;;;4.32;0.80;;;14.30;99.90;;;;;;5015414;28;20062;-82
2023/09/14 01:04:56;;;;;;;3.13;0.75;;;14.30;99.90;;;;;;5014687;28;20042;-83
2023/09/14 01:07:42;;;;;;;2.85;0.75;;;14.30;99.90;;;;;;5013015;28;20052;-84
2023/09/14 01:10:29;;;;;;;3.67;0.73;;;14.30;99.90;;;;;;5014403;28;20128;-82
2023/09/14 01:13:38;;;;;;;3.80;0.50;;;14.30;99.90;;;;;;5014389;28;20465;-84
2023/09/14 01:16:32;;;;;;;5.00;0.70;;;14.20;99.90;;;;;;5013550;28;20054;-84
2023/09/14 01:19:56;;;;;;;3.28;0.80;;;14.20;99.90;;;;;;5012306;28;20054;-81
2023/09/14 01:22:59;;;;;;;2.20;0.60;;;14.10;99.90;;;;;;5012400;28;20042;-80
2023/09/14 01:25:47;;;;;;;1.85;0.70;;;14.00;99.90;;;;;;5013657;28;20049;-84
2023/09/14 01:28:34;;;;;;;2.28;0.63;;;13.90;99.90;;;;;;5013218;28;20934;-75
2023/09/14 01:31:20;;;;;;;1.48;0.50;;;13.90;99.90;;;;;;5052214;28;20061;-84
2023/09/14 01:34:06;;;;;;;1.83;0.55;;;13.80;99.90;;;;;;5034735;28;20049;-80
2023/09/14 01:36:55;;;;;;;3.80;0.85;;;13.80;99.90;;;;;;5052596;28;20081;-84
2023/09/14 01:39:42;;;;;;;3.53;0.65;;;13.70;99.90;;;;;;5052691;28;20401;-84
2023/09/14 01:42:29;;;;;;;3.03;0.80;;;13.60;99.90;;;;;;5053282;28;20056;-79
2023/09/14 01:45:16;;;;;;;3.95;0.70;;;13.50;99.90;;;;;;5037136;28;20642;-81
2023/09/14 01:48:03;;;;;;;2.78;0.70;;;13.40;99.90;;;;;;5035484;28;20084;-78
2023/09/14 01:50:49;;;;;;;2.20;0.68;;;13.30;99.90;;;;;;5051775;28;20052;-83
2023/09/14 01:53:35;;;;;;;4.30;0.95;;;13.20;99.90;;;;;;5052202;28;20052;-81
2023/09/14 01:56:21;;;;;;;2.53;0.80;;;13.20;99.90;;;;;;5051627;28;20048;-83
2023/09/14 01:59:08;;;;;;;3.72;0.73;;;13.10;99.90;;;;;;5035838;28;20485;-83
2023/09/14 02:01:54;;;;;;;4.75;0.60;;;13.00;99.90;;;;;;5053143;28;20063;-79
2023/09/14 02:04:41;;;;;;;3.33;0.93;;;13.00;99.90;;;;;;5052310;28;20049;-84
2023/09/14 02:07:27;;;;;;;4.03;0.70;;;12.90;99.90;;;;;;5052080;28;20082;-82
2023/09/14 02:10:14;;;;;;;8.52;1.02;;;12.80;99.90;;;;;;5052413;28;20076;-83
2023/09/14 02:13:00;;;;;;;6.10;0.80;;;12.70;99.90;;;;;;5037629;28;20131;-81
2023/09/14 02:15:47;;;;;;;6.28;1.35;;;12.60;99.90;;;;;;5052318;28;20077;-83
2023/09/14 02:18:33;;;;;;;1.88;0.77;;;12.60;99.90;;;;;;5052875;28;20076;-85
2023/09/14 02:21:19;;;;;;;5.03;0.95;;;12.50;99.90;;;;;;5052904;28;20114;-77
2023/09/14 02:24:05;;;;;;;7.03;0.90;;;12.50;99.90;;;;;;5052190;28;20416;-82
2023/09/14 02:26:54;;;;;;;3.50;0.82;;;12.40;99.90;;;;;;5052901;28;20055;-83
2023/09/14 02:29:40;;;;;;;2.33;0.80;;;12.40;99.90;;;;;;5033503;28;20065;-81
2023/09/14 02:32:26;;;;;;;3.08;0.85;;;12.40;99.90;;;;;;5034692;28;20045;-75
2023/09/14 02:35:12;;;;;;;7.03;1.13;;;12.30;99.90;;;;;;5051419;28;20087;-75
2023/09/14 02:37:58;;;;;;;2.10;0.70;;;12.30;99.90;;;;;;5051496;28;20056;-76
2023/09/14 02:40:44;;;;;;;1.88;0.80;;;12.30;99.90;;;;;;5006126;28;20090;-76
2023/09/14 02:43:30;;;;;;;4.38;1.13;;;12.30;99.90;;;;;;5051191;28;20152;-76
2023/09/14 02:46:16;;;;;;;3.38;0.90;;;12.20;99.90;;;;;;5051512;28;20067;-78
2023/09/14 02:49:02;;;;;;;2.75;1.02;;;12.20;99.90;;;;;;5051946;28;20082;-77
2023/09/14 02:51:48;;;;;;;5.22;1.08;;;12.20;99.90;;;;;;5051102;28;20106;-75
2023/09/14 02:54:34;;;;;;;6.43;1.20;;;12.20;99.90;;;;;;5052021;28;20053;-77
2023/09/14 02:57:20;;;;;;;2.08;1.05;;;12.10;99.90;;;;;;5051793;28;20055;-81
2023/09/14 03:00:08;;;;;;;4.93;1.10;;;12.10;99.90;;;;;;5051227;28;20045;-81
2023/09/14 03:02:54;;;;;;;7.07;1.20;;;12.10;99.90;;;;;;5050175;28;20465;-80
2023/09/14 03:05:40;;;;;;;7.20;1.17;;;12.00;99.90;;;;;;5051108;28;20059;-79
2023/09/14 03:08:26;;;;;;;3.97;1.00;;;12.00;99.90;;;;;;5050757;28;20517;-78
2023/09/14 03:11:12;;;;;;;2.35;0.80;;;12.00;99.90;;;;;;5033211;28;20045;-81
2023/09/14 03:13:58;;;;;;;2.88;0.80;;;12.00;99.90;;;;;;5032990;28;20048;-77
2023/09/14 03:16:44;;;;;;;4.68;0.93;;;11.90;99.90;;;;;;5050050;28;20068;-79
2023/09/14 03:19:30;;;;;;;4.78;0.88;;;11.90;99.90;;;;;;5050899;28;20401;-77
2023/09/14 03:22:16;;;;;;;4.30;1.25;;;11.90;99.90;;;;;;5050743;28;20515;-77
2023/09/14 03:25:02;;;;;;;2.63;0.95;;;11.80;99.90;;;;;;5051058;28;20132;-78
2023/09/14 03:27:48;;;;;;;3.05;1.10;;;11.80;99.90;;;;;;5050689;28;20060;-76
2023/09/14 03:30:38;;;;;;;5.13;0.88;;;11.80;99.90;;;;;;5049426;28;20084;-75
2023/09/14 03:33:24;;;;;;;4.75;0.95;;;11.80;99.90;;;;;;5032561;28;20061;-73
2023/09/14 03:36:10;;;;;;;5.82;1.40;;;11.70;99.90;;;;;;5033485;28;20685;-77
2023/09/14 03:38:56;;;;;;;4.93;1.20;;;11.70;99.90;;;;;;5050160;28;20076;-76
2023/09/14 03:41:43;;;;;;;3.83;1.10;;;11.70;99.90;;;;;;5050566;28;20431;-77
2023/09/14 03:44:29;;;;;;;3.17;1.38;;;11.60;99.90;;;;;;5050609;28;20055;-83
2023/09/14 03:47:15;;;;;;;6.00;1.40;;;11.60;99.90;;;;;;5049134;28;20041;-80
2023/09/14 03:50:01;;;;;;;7.15;1.75;;;11.60;99.90;;;;;;5050527;28;20096;-76
2023/09/14 03:52:47;;;;;;;7.60;1.75;;;11.70;99.90;;;;;;5050672;28;20143;-80
2023/09/14 03:55:33;;;;;;;7.05;1.88;;;11.70;99.90;;;;;;5049911;28;20584;-81
2023/09/14 03:58:20;;;;;;;4.10;1.50;;;11.70;99.90;;;;;;5032046;28;20060;-80
2023/09/14 04:01:06;;;;;;;5.00;1.73;;;11.70;99.90;;;;;;5051636;28;20057;-80
2023/09/14 04:03:52;;;;;;;4.85;2.05;;;11.70;99.90;;;;;;5049192;28;20053;-77
2023/09/14 04:06:39;;;;;;;6.53;1.70;;;11.70;99.90;;;;;;5032669;28;20053;-75
2023/09/14 04:09:29;;;;;;;7.68;2.03;;;11.70;99.90;;;;;;5050219;28;20577;-79
2023/09/14 04:12:15;;;;;;;6.35;2.00;;;11.60;99.90;;;;;;5050104;28;20049;-78
2023/09/14 04:15:01;;;;;;;6.60;1.83;;;11.60;99.90;;;;;;5033607;28;20045;-76
2023/09/14 04:17:47;;;;;;;5.82;2.00;;;11.60;99.90;;;;;;5032775;28;20118;-74
2023/09/14 04:20:33;;;;;;;5.82;2.03;;;11.60;99.90;;;;;;5050037;28;20056;-78
2023/09/14 04:23:20;;;;;;;4.75;1.98;;;11.50;99.90;;;;;;5049675;28;20053;-73
2023/09/14 04:26:06;;;;;;;6.53;1.73;;;11.50;99.90;;;;;;5049007;28;20481;-76
2023/09/14 04:28:52;;;;;;;6.75;1.70;;;11.50;99.90;;;;;;5050246;28;20497;-77
2023/09/14 04:31:40;;;;;;;5.90;2.05;;;11.40;99.90;;;;;;5049362;28;20422;-74
2023/09/14 04:34:27;;;;;;;5.68;1.83;;;11.40;99.90;;;;;;5032180;28;20047;-73
2023/09/14 04:37:13;;;;;;;11.43;3.17;;;11.40;99.90;;;;;;5019023;28;20067;-73
2023/09/14 04:39:59;;;;;;;5.75;1.75;;;11.30;99.90;;;;;;5032997;28;20483;-73
2023/09/14 04:42:45;;;;;;;6.45;1.98;;;11.30;99.90;;;;;;5049710;28;20053;-73
2023/09/14 04:45:32;;;;;;;5.47;1.60;;;11.30;99.90;;;;;;5049966;28;20348;-74
2023/09/14 04:48:18;;;;;;;6.60;2.25;;;11.30;99.90;;;;;;5050484;28;20116;-73
2023/09/14 04:51:04;;;;;;;7.53;1.70;;;11.30;99.90;;;;;;5034902;28;20580;-73
2023/09/14 04:53:50;;;;;;;5.80;1.70;;;11.20;99.90;;;;;;5050396;28;20048;-73
2023/09/14 04:56:37;;;;;;;4.00;1.58;;;11.20;99.90;;;;;;5049813;28;20136;-75
2023/09/14 04:59:24;;;;;;;7.28;1.58;;;11.20;99.90;;;;;;5052653;28;20110;-74
2023/09/14 05:02:10;;;;;;;4.72;1.40;;;11.10;99.90;;;;;;5035879;28;20052;-73
2023/09/14 05:04:56;;;;;;;4.88;1.58;;;11.10;99.90;;;;;;5052405;28;20049;-73
2023/09/14 05:07:43;;;;;;;6.60;1.50;;;11.10;99.90;;;;;;5052932;28;20059;-74
2023/09/14 05:10:29;;;;;;;6.72;1.80;;;11.10;99.90;;;;;;5052677;28;20170;-73
2023/09/14 05:13:15;;;;;;;4.10;1.70;;;11.10;99.90;;;;;;5022280;28;20382;-74
2023/09/14 05:16:02;;;;;;;8.00;1.52;;;11.00;99.90;;;;;;5053488;28;20048;-77
2023/09/14 05:18:48;;;;;;;4.85;1.30;;;11.10;99.90;;;;;;5035115;28;20056;-73
2023/09/14 05:21:35;;;;;;;3.97;1.20;;;11.00;99.90;;;;;;5053152;28;20469;-75
2023/09/14 05:24:21;;;;;;;4.05;1.20;;;11.00;99.90;;;;;;5052636;28;20202;-73
2023/09/14 05:27:07;;;;;;;4.05;1.35;;;11.00;99.90;;;;;;5039351;28;20106;-77
2023/09/14 05:29:53;;;;;;;3.30;1.17;;;11.10;99.90;;;;;;5038210;28;20135;-76
2023/09/14 05:32:40;;;;;;;4.05;1.00;;;11.10;99.90;;;;;;5052195;28;20053;-75
2023/09/14 05:35:26;;;;;;;5.60;1.02;;;11.10;99.90;;;;;;5053047;28;20072;-76
2023/09/14 05:38:12;;;;;;;8.77;1.30;;;11.10;99.90;;;;;;5053678;28;20400;-74
2023/09/14 05:40:58;;;;;;;7.60;1.17;;;11.10;99.90;;;;;;5052122;28;20084;-76
2023/09/14 05:43:44;;;;;;;5.13;1.73;;;11.20;99.90;;;;;;5053629;28;20049;-75
2023/09/14 05:46:31;;;;;;;3.20;1.27;;;11.20;99.90;;;;;;5053083;28;20045;-75
2023/09/14 05:49:17;;;;;;;6.00;1.30;;;11.30;99.90;;;;;;5035067;28;20099;-77
2023/09/14 05:52:03;;;;;;;5.63;1.17;;;11.30;99.90;;;;;;5053939;28;20075;-78
2023/09/14 05:54:49;;;;;;;4.53;1.42;;;11.40;99.90;;;;;;5039058;28;20057;-76
2023/09/14 05:57:35;;;;;;;4.63;1.02;;;11.50;99.90;;;;;;5040974;28;20405;-74
2023/09/14 06:00:22;;;;;;;5.25;1.40;;;11.60;99.90;;;;;;5053821;28;20480;-75
2023/09/14 06:03:08;;;;;;;5.55;1.77;;;11.70;99.90;;;;;;5037458;28;20053;-77
2023/09/14 06:05:55;;;;;;;8.35;1.30;;;11.80;99.90;;;;;;5053156;28;20132;-76
2023/09/14 06:08:41;;;;;;;5.82;1.20;;;11.90;99.90;;;;;;5035366;28;20057;-77
2023/09/14 06:11:27;;;;;;;5.30;1.00;;;12.00;99.90;;;;;;5033996;28;20520;-78
2023/09/14 06:14:13;;;;;;;7.38;1.35;;;12.10;99.90;;;;;;5052386;28;20098;-76
2023/09/14 06:17:00;;;;;;;7.22;1.60;;;12.20;99.90;;;;;;5051924;28;20052;-78
2023/09/14 06:19:47;;;;;;;6.78;1.35;;;12.30;99.90;;;;;;5051884;28;20056;-77
2023/09/14 06:22:33;;;;;;;5.28;1.02;;;12.40;99.90;;;;;;5051576;28;20049;-77
2023/09/14 06:25:20;;;;;;;6.57;1.48;;;12.50;99.90;;;;;;5051815;28;20519;-74
2023/09/14 06:28:06;;;;;;;12.27;1.30;;;12.70;99.90;;;;;;5051300;28;20056;-73
2023/09/14 06:30:52;;;;;;;7.47;1.40;;;12.70;99.90;;;;;;5050395;28;20053;-74
2023/09/14 06:33:39;;;;;;;6.22;1.10;;;12.80;99.90;;;;;;5052370;28;20068;-74
2023/09/14 06:36:25;;;;;;;14.07;2.35;;;13.00;99.90;;;;;;5051294;28;20124;-73
2023/09/14 06:39:12;;;;;;;5.53;1.10;;;13.10;99.90;;;;;;5051668;28;20135;-75
2023/09/14 06:41:58;;;;;;;7.68;1.25;;;13.20;99.90;;;;;;5037357;28;20413;-74
2023/09/14 06:44:45;;;;;;;24.27;3.58;;;13.40;99.90;;;;;;5051619;28;20053;-76
2023/09/14 06:47:31;;;;;;;14.77;1.60;;;13.50;99.90;;;;;;5051453;28;20060;-74
2023/09/14 06:50:17;;;;;;;5.30;1.30;;;13.70;99.90;;;;;;5052714;28;20111;-77
2023/09/14 06:53:03;;;;;;;7.30;1.58;;;13.90;99.90;;;;;;5051168;28;20421;-75
2023/09/14 06:55:50;;;;;;;5.80;1.15;;;14.10;99.90;;;;;;5050756;28;20040;-76
2023/09/14 06:58:37;;;;;;;4.28;0.70;;;14.20;99.90;;;;;;5051126;28;20424;-76
2023/09/14 07:01:23;;;;;;;6.97;1.10;;;14.40;99.90;;;;;;5051300;28;20114;-76
2023/09/14 07:04:09;;;;;;;4.20;1.35;;;14.50;99.90;;;;;;5050091;28;20049;-79
2023/09/14 07:06:56;;;;;;;4.60;1.10;;;14.70;99.90;;;;;;5050910;28;20056;-76
2023/09/14 07:09:42;;;;;;;3.28;0.95;;;14.80;99.90;;;;;;5050481;28;20056;-76
2023/09/14 07:12:28;;;;;;;4.80;1.20;;;15.00;99.90;;;;;;5020782;28;20378;-76
2023/09/14 07:15:14;;;;;;;5.25;1.45;;;15.10;99.90;;;;;;5050853;28;20061;-75
2023/09/14 07:18:01;;;;;;;6.97;1.10;;;15.20;99.90;;;;;;5032157;28;20052;-77
2023/09/14 07:20:47;;;;;;;5.97;1.30;;;15.30;99.90;;;;;;5049493;28;20111;-73
2023/09/14 07:23:33;;;;;;;7.18;1.20;;;15.50;99.90;;;;;;5051715;28;20105;-75
2023/09/14 07:26:19;;;;;;;11.07;1.50;;;15.60;99.90;;;;;;5050884;28;20102;-76
2023/09/14 07:29:06;;;;;;;5.18;1.30;;;15.80;99.90;;;;;;5019416;28;20140;-75
2023/09/14 07:31:52;;;;;;;4.18;1.05;;;15.90;99.90;;;;;;5037465;28;20409;-73
2023/09/14 07:34:38;;;;;;;5.90;1.58;;;16.00;99.90;;;;;;5051002;28;20045;-75
2023/09/14 07:37:25;;;;;;;8.65;1.90;;;16.10;99.90;;;;;;5050864;28;20106;-76
2023/09/14 07:40:11;;;;;;;6.25;1.60;;;16.10;99.90;;;;;;5050645;28;20057;-75
2023/09/14 07:42:57;;;;;;;11.52;2.65;;;16.20;99.90;;;;;;5051141;28;20409;-76
2023/09/14 07:45:44;;;;;;;6.85;1.40;;;16.40;99.90;;;;;;5019097;28;20107;-78
2023/09/14 07:48:31;;;;;;;11.25;1.70;;;16.60;99.90;;;;;;5049889;28;20057;-74
2023/09/14 07:51:17;;;;;;;5.63;1.30;;;16.60;99.90;;;;;;5051778;28;20052;-77
2023/09/14 07:54:03;;;;;;;8.43;1.42;;;16.80;99.90;;;;;;5051232;28;20045;-78
2023/09/14 07:56:49;;;;;;;9.88;2.13;;;16.90;99.90;;;;;;5050593;28;20071;-81
2023/09/14 07:59:35;;;;;;;8.23;1.65;;;17.00;99.90;;;;;;5019377;28;20064;-75
2023/09/14 08:02:21;;;;;;;6.32;1.20;;;17.10;99.90;;;;;;5050682;28;20064;-75
2023/09/14 08:05:08;;;;;;;6.85;1.00;;;17.20;99.90;;;;;;5035659;28;20045;-78
2023/09/14 08:07:54;;;;;;;8.77;1.60;;;17.40;99.90;;;;;;5051116;28;20424;-75
2023/09/14 08:10:41;;;;;;;6.18;1.40;;;17.50;99.90;;;;;;5049734;28;20053;-76
2023/09/14 08:13:27;;;;;;;9.15;1.50;;;17.60;99.90;;;;;;5035871;28;20049;-77
2023/09/14 08:16:13;;;;;;;5.72;1.02;;;17.70;99.90;;;;;;5050804;28;20053;-75
2023/09/14 08:18:59;;;;;;;5.55;1.17;;;17.80;99.90;;;;;;5049927;28;20056;-77
2023/09/14 08:21:46;;;;;;;7.47;1.33;;;18.00;99.90;;;;;;5031785;28;20107;-75
2023/09/14 08:24:32;;;;;;;7.60;1.13;;;18.40;99.90;;;;;;5032288;28;20144;-75
2023/09/14 08:27:18;;;;;;;6.18;1.40;;;18.50;99.10;;;;;;5050637;28;20053;-79
2023/09/14 08:30:08;;;;;;;6.75;1.38;;;18.50;98.10;;;;;;5050599;28;20432;-77
2023/09/14 08:32:55;;;;;;;7.30;1.85;;;18.80;98.10;;;;;;5032635;28;20523;-79
2023/09/14 08:35:43;;;;;;;4.22;1.10;;;18.90;98.10;;;;;;5053463;28;20102;-74
2023/09/14 08:38:29;;;;;;;7.13;1.15;;;19.20;97.80;;;;;;5054453;28;20568;-77
2023/09/14 08:41:30;;;;;;;8.98;1.00;;;19.50;97.40;;;;;;5053197;28;20401;-79
2023/09/14 08:44:19;;;;;;;6.28;1.45;;;19.60;95.80;;;;;;5054044;28;20152;-77
2023/09/14 08:47:06;;;;;;;3.60;0.93;;;19.80;96.00;;;;;;5053161;28;20048;-82
2023/09/14 08:49:54;;;;;;;10.43;1.70;;;19.90;96.00;;;;;;5053610;28;20103;-78
2023/09/14 08:52:42;;;;;;;5.30;1.33;;;20.00;96.20;;;;;;5054873;28;20049;-75
2023/09/14 08:55:34;;;;;;;7.35;1.00;;;19.60;95.50;;;;;;5036751;28;20401;-77
2023/09/14 08:58:22;;;;;;;6.22;1.02;;;19.70;95.50;;;;;;5035657;28;20140;-82
2023/09/14 09:01:11;;;;;;;5.57;1.10;;;19.70;95.30;;;;;;5052841;28;20053;-76
2023/09/14 09:03:57;;;;;;;5.43;1.13;;;19.50;94.90;;;;;;5054074;28;20064;-74
2023/09/14 09:06:43;;;;;;;6.00;1.10;;;19.70;94.70;;;;;;5053515;28;20099;-77
2023/09/14 09:09:30;;;;;;;6.80;1.27;;;19.70;94.20;;;;;;5052595;28;20091;-78
2023/09/14 09:12:17;;;;;;;6.30;1.33;;;19.60;94.40;;;;;;5052154;28;20055;-79
2023/09/14 09:15:03;;;;;;;8.32;1.50;;;19.50;94.50;;;;;;5035231;28;20061;-75
2023/09/14 09:17:53;;;;;;;5.22;0.90;;;19.50;94.70;;;;;;5035955;28;20194;-79
2023/09/14 09:20:45;;;;;;;7.20;1.00;;;19.60;94.40;;;;;;5035573;28;20049;-80
2023/09/14 09:23:33;;;;;;;7.00;1.00;;;19.80;94.20;;;;;;5053137;28;20045;-77
2023/09/14 09:26:20;;;;;;;6.25;1.40;;;19.80;93.70;;;;;;5052834;28;20080;-78
2023/09/14 09:29:18;;;;;;;9.88;1.80;;;19.80;93.60;;;;;;5052873;28;20400;-80
2023/09/14 09:32:04;;;;;;;7.95;1.60;;;19.70;93.90;;;;;;5053618;28;20049;-75
2023/09/14 09:34:50;;;;;;;5.97;1.38;;;19.70;94.10;;;;;;5034603;28;20450;-75
2023/09/14 09:37:37;;;;;;;8.88;2.25;;;19.70;93.80;;;;;;5053038;28;20044;-75
2023/09/14 09:40:28;;;;;;;6.68;0.90;;;19.80;93.70;;;;;;5053336;28;20056;-76
2023/09/14 09:43:18;;;;;;;6.95;1.60;;;19.80;93.40;;;;;;5033571;28;20102;-75
2023/09/14 09:46:17;;;;;;;12.20;1.88;;;19.60;93.40;;;;;;5052293;28;20061;-76
2023/09/14 09:49:14;;;;;;;9.43;1.88;;;19.70;93.80;;;;;;5036182;28;20114;-76
2023/09/14 09:52:01;;;;;;;7.45;1.58;;;19.70;94.20;;;;;;5053002;28;20053;-81
2023/09/14 09:54:47;;;;;;;7.00;1.30;;;20.00;94.40;;;;;;5052551;28;20135;-76
2023/09/14 09:57:36;;;;;;;7.45;1.40;;;20.00;94.10;;;;;;5034672;28;20060;-76
2023/09/14 10:00:28;;;;;;;6.43;1.98;;;20.20;94.40;;;;;;5034763;28;20068;-76
2023/09/14 10:03:18;;;;;;;7.35;1.65;;;20.70;94.40;;;;;;5034661;28;20053;-76
2023/09/14 10:06:08;;;;;;;4.63;1.33;;;21.00;93.80;;;;;;5034317;28;20056;-82
2023/09/14 10:08:57;;;;;;;6.35;1.60;;;21.40;93.60;;;;;;5038212;28;20536;-80
2023/09/14 10:11:46;;;;;;;5.32;1.20;;;21.70;92.80;;;;;;5053085;28;20059;-83
2023/09/14 10:14:34;;;;;;;7.35;1.70;;;22.00;92.10;;;;;;5033695;28;20099;-84
2023/09/14 10:17:25;;;;;;;8.57;1.80;;;21.80;91.10;;;;;;5034653;28;20048;-83
2023/09/14 10:20:11;;;;;;;5.10;1.52;;;21.80;91.80;;;;;;5052139;28;20052;-80
2023/09/14 10:23:00;;;;;;;8.50;1.75;;;21.70;91.50;;;;;;5051231;28;20068;-83
2023/09/14 10:25:49;;;;;;;5.25;1.33;;;21.70;91.20;;;;;;5052653;28;20084;-82
2023/09/14 10:28:37;;;;;;;7.57;1.40;;;22.20;91.60;;;;;;5052454;28;20052;-83
2023/09/14 10:31:24;;;;;;;4.97;1.38;;;22.30;91.10;;;;;;5051865;28;20056;-81
2023/09/14 10:34:12;;;;;;;7.80;1.58;;;22.60;91.10;;;;;;5034570;28;20051;-83
2023/09/14 10:36:59;;;;;;;6.60;1.70;;;22.60;90.30;;;;;;5034482;28;20076;-80
2023/09/14 10:39:46;;;;;;;4.95;1.73;;;22.30;90.00;;;;;;5051000;28;20041;-78
2023/09/14 10:42:32;;;;;;;9.73;1.90;;;22.60;90.30;;;;;;5051886;28;20041;-82
2023/09/14 10:45:19;;;;;;;9.05;2.38;;;23.00;90.70;;;;;;5052263;28;20485;-83
2023/09/14 10:48:11;;;;;;;7.03;1.42;;;23.10;90.40;;;;;;5050984;28;20090;-81
2023/09/14 10:50:58;;;;;;;8.45;1.65;;;23.30;90.50;;;;;;5034209;28;20111;-83
2023/09/14 10:53:45;;;;;;;5.70;1.85;;;23.30;90.80;;;;;;5051382;28;20049;-81
2023/09/14 10:56:33;;;;;;;5.72;1.95;;;23.30;90.00;;;;;;5049104;28;20048;-80
2023/09/14 10:59:19;;;;;;;7.28;1.98;;;23.60;90.10;;;;;;5032813;28;20056;-82
2023/09/14 11:02:05;;;;;;;6.47;1.70;;;23.30;87.00;;;;;;5051592;28;20489;-83
2023/09/14 11:05:18;;;;;;;6.85;1.65;;;23.30;87.60;;;;;;5033049;28;20053;-80
2023/09/14 11:08:04;;;;;;;6.57;2.00;;;23.50;83.80;;;;;;5050547;28;20560;-79
2023/09/14 11:10:59;;;;;;;12.00;3.28;;;23.60;87.20;;;;;;5050284;28;20047;-77
2023/09/14 11:13:57;;;;;;;4.97;2.00;;;24.00;87.50;;;;;;5050672;28;20076;-78
2023/09/14 11:16:54;;;;;;;5.40;1.80;;;24.40;87.00;;;;;;5050777;28;20132;-79
2023/09/14 11:19:44;;;;;;;5.07;1.40;;;25.20;85.90;;;;;;5049660;28;20520;-81
2023/09/14 11:22:31;;;;;;;9.13;1.90;;;25.30;81.70;;;;;;5051995;28;20059;-78
2023/09/14 11:25:37;;;;;;;5.75;1.83;;;25.30;83.50;;;;;;5051179;28;20044;-79
2023/09/14 11:28:24;;;;;;;5.72;1.40;;;25.60;82.90;;;;;;5051186;28;20539;-84
2023/09/14 11:31:10;;;;;;;7.38;1.70;;;26.10;84.00;;;;;;5050295;28;20072;-84
2023/09/14 11:33:57;;;;;;;5.35;1.77;;;25.90;82.10;;;;;;5050029;28;20049;-82
2023/09/14 11:36:44;;;;;;;6.50;1.58;;;26.10;82.10;;;;;;5036518;28;20562;-82
2023/09/14 11:39:31;;;;;;;7.53;1.60;;;26.50;82.20;;;;;;5050929;28;20075;-84
2023/09/14 11:42:18;;;;;;;10.13;1.83;;;26.10;80.80;;;;;;5050150;28;20082;-82
2023/09/14 11:45:06;;;;;;;5.82;1.70;;;25.90;80.40;;;;;;5050703;28;20056;-84
2023/09/14 11:47:53;;;;;;;10.00;2.67;;;25.30;80.90;;;;;;5050470;28;20049;-84
2023/09/14 11:50:46;;;;;;;6.82;1.80;;;24.70;82.20;;;;;;5050806;28;20055;-83
2023/09/14 11:53:33;;;;;;;7.43;2.05;;;25.70;80.70;;;;;;5031973;28;20522;-83
2023/09/14 11:56:20;;;;;;;6.28;1.52;;;26.00;78.40;;;;;;5049540;28;20782;-84
2023/09/14 11:59:06;;;;;;;5.43;1.55;;;26.70;78.40;;;;;;5050621;28;20049;-83
2023/09/14 12:01:52;;;;;;;5.75;1.70;;;27.20;77.30;;;;;;5035986;28;20539;-77
2023/09/14 12:04:40;;;;;;;8.55;2.00;;;27.20;77.30;;;;;;5050940;28;20051;-78
2023/09/14 12:07:27;;;;;;;6.60;1.83;;;26.70;75.40;;;;;;5050387;28;20051;-79
2023/09/14 12:10:21;;;;;;;6.18;1.80;;;26.40;76.10;;;;;;5032551;28;20167;-78
2023/09/14 12:13:17;;;;;;;9.47;2.43;;;26.90;74.50;;;;;;5050250;28;20049;-79
2023/09/14 12:16:04;;;;;;;6.57;1.83;;;27.30;74.50;;;;;;5035787;28;20292;-77
2023/09/14 12:18:51;;;;;;;7.97;1.90;;;28.30;72.50;;;;;;5050290;28;20045;-80
2023/09/14 12:21:38;;;;;;;6.85;2.10;;;28.60;71.20;;;;;;5050728;28;20052;-78
2023/09/14 12:24:24;;;;;;;6.63;1.90;;;29.70;68.70;;;;;;5050277;28;20382;-79
2023/09/14 12:27:11;;;;;;;10.00;2.15;;;29.50;68.00;;;;;;5031447;28;20059;-82
2023/09/14 12:29:57;;;;;;;8.00;1.85;;;30.40;70.10;;;;;;5050077;28;20416;-82
2023/09/14 12:32:43;;;;;;;4.93;1.90;;;29.60;67.10;;;;;;5048674;28;20520;-80
2023/09/14 12:35:30;;;;;;;8.27;2.30;;;29.90;66.90;;;;;;5018808;28;20049;-83
2023/09/14 12:38:17;;;;;;;4.78;2.05;;;30.80;66.30;;;;;;5033955;28;20138;-80
2023/09/14 12:41:05;;;;;;;8.50;2.60;;;31.30;65.00;;;;;;5049370;28;20056;-82
2023/09/14 12:43:51;;;;;;;7.57;2.70;;;32.10;64.00;;;;;;5049098;28;20056;-78
2023/09/14 12:46:37;;;;;;;8.93;2.63;;;31.80;63.70;;;;;;5050107;28;20049;-78
2023/09/14 12:49:24;;;;;;;5.35;2.10;;;32.80;62.50;;;;;;5050459;28;20132;-86
2023/09/14 12:52:10;;;;;;;9.70;2.78;;;33.50;60.30;;;;;;5050046;28;20479;-77
2023/09/14 12:55:03;;;;;;;6.07;2.20;;;34.20;59.10;;;;;;5032129;28;20553;-80
2023/09/14 12:57:52;;;;;;;7.68;2.63;;;34.70;58.60;;;;;;5048855;28;20045;-78
2023/09/14 13:00:39;;;;;;;7.28;2.22;;;34.70;55.90;;;;;;5050563;28;20049;-75
2023/09/14 13:03:25;;;;;;;6.72;2.10;;;34.50;54.10;;;;;;5048907;28;20532;-77
2023/09/14 13:06:11;;;;;;;8.95;2.30;;;34.00;55.20;;;;;;5050515;28;20378;-77
2023/09/14 13:08:57;;;;;;;4.35;1.60;;;33.70;55.00;;;;;;5049479;28;20079;-78
2023/09/14 13:11:50;;;;;;;6.90;1.85;;;33.20;55.40;;;;;;5049685;28;20049;-79
2023/09/14 13:14:37;;;;;;;6.13;2.13;;;33.00;54.60;;;;;;5049204;28;20045;-79
2023/09/14 13:17:23;;;;;;;4.47;1.80;;;33.20;54.10;;;;;;5018472;28;20415;-81
2023/09/14 13:20:09;;;;;;;7.35;2.08;;;33.20;55.40;;;;;;5033145;28;20048;-78
2023/09/14 13:23:05;;;;;;;10.18;2.78;;;33.20;55.00;;;;;;5053013;28;20492;-78
2023/09/14 13:25:51;;;;;;;13.90;2.95;;;33.70;55.80;;;;;;5035633;28;20056;-77
2023/09/14 13:28:37;;;;;;;5.93;2.42;;;34.40;55.20;;;;;;5052820;28;20044;-78
2023/09/14 13:31:23;;;;;;;8.15;2.35;;;34.00;54.30;;;;;;5013366;28;20489;-77
2023/09/14 13:34:10;;;;;;;5.43;1.90;;;34.50;54.30;;;;;;5013575;28;20060;-78
2023/09/14 13:36:56;;;;;;;5.07;1.90;;;35.40;54.40;;;;;;5013909;28;20135;-78
2023/09/14 13:39:42;;;;;;;5.95;1.95;;;35.70;53.30;;;;;;5012555;28;20200;-81
2023/09/14 13:42:28;;;;;;;6.28;2.05;;;35.10;52.10;;;;;;5013219;28;20046;-79
2023/09/14 13:45:16;;;;;;;5.40;1.48;;;35.20;52.70;;;;;;5011583;28;20077;-78
2023/09/14 13:48:03;;;;;;;6.13;2.00;;;35.10;53.90;;;;;;5013754;28;20137;-79
2023/09/14 13:50:49;;;;;;;10.63;1.98;;;34.90;53.50;;;;;;5013142;28;20053;-80
2023/09/14 13:53:35;;;;;;;12.25;2.72;;;34.80;53.40;;;;;;5013498;28;20565;-77
2023/09/14 13:56:21;;;;;;;7.18;2.25;;;34.80;52.20;;;;;;5011861;28;20052;-77
2023/09/14 13:59:07;;;;;;;8.60;2.53;;;34.70;52.70;;;;;;5013480;28;20195;-77
2023/09/14 14:01:53;;;;;;;7.70;2.08;;;35.40;52.50;;;;;;5013277;28;20060;-78
2023/09/14 14:04:39;;;;;;;7.85;2.10;;;35.60;51.50;;;;;;5013049;28;20458;-76
2023/09/14 14:07:26;;;;;;;7.03;2.22;;;35.60;51.10;;;;;;5011666;28;20100;-76
2023/09/14 14:10:12;;;;;;;6.40;2.10;;;35.80;51.10;;;;;;5012951;28;20426;-76
2023/09/14 14:12:58;;;;;;;10.05;2.90;;;36.40;50.40;;;;;;5011036;28;20049;-76
2023/09/14 14:15:45;;;;;;;6.22;1.75;;;36.40;50.40;;;;;;5012490;28;20088;-77
2023/09/14 14:18:31;;;;;;;7.35;1.73;;;36.80;49.40;;;;;;5011215;28;20080;-77
2023/09/14 14:21:17;;;;;;;7.57;1.85;;;36.90;49.70;;;;;;4998290;28;20121;-77
2023/09/14 14:24:03;;;;;;;8.25;2.33;;;36.90;49.70;;;;;;5011081;28;20045;-79
2023/09/14 14:26:51;;;;;;;6.03;2.03;;;37.20;49.70;;;;;;5012720;28;20738;-76
2023/09/14 14:29:37;;;;;;;7.43;1.85;;;36.90;49.10;;;;;;5022772;28;20462;-77